Time;durP1;ratioP1;P1;durP2;ratioP2;P2;SDS_P1;SDS_P2;PMS_P1;PMS_P2;Temp;Humidity;BMP_temperature;BMP_pressure;BME280_temperature;BME280_humidity;BME280_pressure;Samples;Min_cycle;Max_cycle;Signal;HPM_P1;HPM_P2
2023/12/23 00:01:21;;;;;;;4.85;3.50;;;4.00;75.10;;;;;;5100101;28;20189;-80
2023/12/23 00:03:46;;;;;;;5.20;3.20;;;4.10;75.10;;;;;;5102901;27;20405;-81
2023/12/23 00:06:12;;;;;;;3.95;2.72;;;4.10;75.10;;;;;;5106315;28;20115;-81
2023/12/23 00:08:38;;;;;;;4.28;3.10;;;4.10;75.00;;;;;;5098872;28;20119;-79
2023/12/23 00:11:04;;;;;;;6.28;3.67;;;4.10;75.00;;;;;;5115774;27;20035;-80
2023/12/23 00:13:30;;;;;;;5.93;3.20;;;4.10;74.90;;;;;;5103692;27;20038;-80
2023/12/23 00:15:55;;;;;;;5.32;3.55;;;4.20;74.90;;;;;;5137050;27;20031;-79
2023/12/23 00:18:21;;;;;;;3.83;3.10;;;4.10;74.70;;;;;;5118372;27;20460;-79
2023/12/23 00:20:47;;;;;;;5.57;3.50;;;4.10;74.70;;;;;;5118917;27;20031;-78
2023/12/23 00:23:13;;;;;;;4.82;3.45;;;4.10;74.60;;;;;;5133708;27;20042;-80
2023/12/23 00:25:39;;;;;;;5.65;3.35;;;4.20;74.70;;;;;;5102842;27;20353;-80
2023/12/23 00:28:06;;;;;;;5.15;3.60;;;4.10;74.50;;;;;;5126522;27;20020;-79
2023/12/23 00:30:32;;;;;;;4.50;3.13;;;4.10;74.30;;;;;;5108359;28;20031;-78
2023/12/23 00:32:57;;;;;;;5.35;3.63;;;4.10;74.40;;;;;;5113527;27;20038;-79
2023/12/23 00:35:23;;;;;;;6.57;3.50;;;4.00;74.40;;;;;;5131130;27;20098;-79
2023/12/23 00:37:49;;;;;;;4.88;3.95;;;4.00;74.40;;;;;;5125791;27;20031;-80
2023/12/23 00:40:15;;;;;;;5.90;3.60;;;4.00;74.30;;;;;;5117736;27;20045;-79
2023/12/23 00:42:41;;;;;;;5.03;3.65;;;3.90;74.30;;;;;;5100822;28;20036;-79
2023/12/23 00:45:07;;;;;;;3.92;3.15;;;3.90;74.50;;;;;;5114574;27;20066;-80
2023/12/23 00:47:33;;;;;;;4.38;3.40;;;3.90;74.60;;;;;;5117779;27;20027;-80
2023/12/23 00:49:58;;;;;;;6.15;3.80;;;3.90;74.60;;;;;;5118084;27;20023;-79
2023/12/23 00:52:24;;;;;;;6.38;3.80;;;3.90;74.60;;;;;;5112578;27;20080;-79
2023/12/23 00:54:50;;;;;;;6.13;3.63;;;3.90;74.50;;;;;;5125564;27;20403;-78
2023/12/23 00:57:16;;;;;;;7.88;3.40;;;3.80;74.50;;;;;;5097517;28;20405;-79
2023/12/23 00:59:42;;;;;;;4.70;3.38;;;3.80;74.50;;;;;;5127345;27;20469;-80
2023/12/23 01:02:08;;;;;;;3.92;3.25;;;3.80;74.50;;;;;;5109965;28;20114;-81
2023/12/23 01:04:34;;;;;;;6.22;3.40;;;3.80;74.40;;;;;;5098705;28;20101;-80
2023/12/23 01:07:00;;;;;;;5.05;3.33;;;3.80;74.20;;;;;;5097302;28;20469;-79
2023/12/23 01:09:26;;;;;;;6.20;3.42;;;3.70;74.20;;;;;;5096982;28;20031;-79
2023/12/23 01:11:51;;;;;;;4.80;3.40;;;3.70;74.10;;;;;;5097497;28;20400;-79
2023/12/23 01:14:17;;;;;;;4.50;3.50;;;3.80;74.20;;;;;;5111992;28;20028;-79
2023/12/23 01:16:43;;;;;;;3.63;3.00;;;3.80;74.30;;;;;;5115422;27;20023;-80
2023/12/23 01:19:09;;;;;;;5.05;2.78;;;3.80;74.30;;;;;;5096954;28;20130;-79
2023/12/23 01:21:34;;;;;;;5.10;3.00;;;3.80;74.20;;;;;;5123158;27;20083;-78
2023/12/23 01:24:00;;;;;;;5.43;3.17;;;3.80;74.00;;;;;;5098380;27;20080;-80
2023/12/23 01:26:26;;;;;;;5.60;3.50;;;3.80;74.10;;;;;;5135442;27;20046;-77
2023/12/23 01:28:51;;;;;;;4.68;3.63;;;3.80;73.90;;;;;;5117186;27;20034;-79
2023/12/23 01:31:18;;;;;;;3.55;2.88;;;3.80;74.00;;;;;;5117015;27;20049;-79
2023/12/23 01:33:44;;;;;;;4.78;3.30;;;3.80;74.10;;;;;;5135239;27;20088;-78
2023/12/23 01:36:09;;;;;;;4.50;3.17;;;3.80;74.00;;;;;;5098112;28;20031;-78
2023/12/23 01:38:35;;;;;;;5.63;3.33;;;3.80;73.90;;;;;;5129722;27;20031;-80
2023/12/23 01:41:01;;;;;;;4.80;3.28;;;3.80;73.90;;;;;;5096944;28;20043;-79
2023/12/23 01:43:28;;;;;;;3.58;2.92;;;3.70;73.80;;;;;;5115133;28;20043;-79
2023/12/23 01:45:59;;;;;;;3.95;2.78;;;3.70;73.90;;;;;;5131951;27;20034;-79
2023/12/23 01:48:26;;;;;;;4.15;2.85;;;3.70;73.90;;;;;;5133203;27;20031;-79
2023/12/23 01:50:53;;;;;;;3.83;3.00;;;3.70;74.00;;;;;;5123947;27;20023;-81
2023/12/23 01:53:20;;;;;;;4.30;3.00;;;3.70;73.90;;;;;;5115646;27;20114;-78
2023/12/23 01:55:46;;;;;;;3.78;3.00;;;3.80;74.50;;;;;;5103334;28;20028;-79
2023/12/23 01:58:12;;;;;;;4.57;3.25;;;3.80;73.70;;;;;;5133587;27;20048;-78
2023/12/23 02:00:38;;;;;;;3.80;2.85;;;3.80;73.90;;;;;;5117068;27;20067;-78
2023/12/23 02:03:04;;;;;;;4.20;3.10;;;3.80;73.70;;;;;;5096684;28;20104;-79
2023/12/23 02:05:30;;;;;;;3.75;3.10;;;3.70;73.70;;;;;;5105604;27;20457;-79
2023/12/23 02:07:56;;;;;;;4.32;3.25;;;3.80;73.60;;;;;;5114513;27;20025;-79
2023/12/23 02:10:22;;;;;;;5.28;3.08;;;3.80;73.70;;;;;;5106147;27;20544;-79
2023/12/23 02:12:55;;;;;;;5.03;3.35;;;3.80;73.60;;;;;;5135037;27;20023;-78
2023/12/23 02:15:23;;;;;;;5.45;3.53;;;3.70;73.50;;;;;;5105598;28;20110;-80
2023/12/23 02:17:58;;;;;;;4.75;3.25;;;3.70;73.40;;;;;;5126452;27;20031;-78
2023/12/23 02:20:24;;;;;;;5.10;3.08;;;3.70;73.40;;;;;;5133823;27;20038;-81
2023/12/23 02:22:49;;;;;;;5.78;3.80;;;3.70;73.30;;;;;;5116492;28;20031;-79
2023/12/23 02:25:15;;;;;;;5.80;3.50;;;3.60;73.40;;;;;;5118595;28;20020;-78
2023/12/23 02:27:52;;;;;;;5.00;3.78;;;3.60;73.40;;;;;;5114701;28;20027;-76
2023/12/23 02:30:19;;;;;;;5.60;3.45;;;3.60;73.60;;;;;;5115415;28;20026;-80
2023/12/23 02:32:45;;;;;;;5.55;3.50;;;3.60;73.60;;;;;;5114119;28;20433;-79
2023/12/23 02:35:12;;;;;;;6.53;4.00;;;3.50;73.40;;;;;;5106213;28;20019;-79
2023/12/23 02:37:38;;;;;;;4.18;2.88;;;3.50;73.50;;;;;;5114942;28;20031;-79
2023/12/23 02:40:04;;;;;;;4.18;3.13;;;3.50;73.50;;;;;;5095932;28;20130;-80
2023/12/23 02:42:30;;;;;;;7.75;3.72;;;3.50;73.30;;;;;;5095927;28;20055;-80
2023/12/23 02:44:56;;;;;;;6.45;3.65;;;3.50;73.40;;;;;;5125153;28;20065;-78
2023/12/23 02:47:22;;;;;;;5.55;3.92;;;3.50;73.40;;;;;;5115157;27;20038;-78
2023/12/23 02:49:47;;;;;;;6.70;3.72;;;3.50;73.30;;;;;;5134243;27;20059;-79
2023/12/23 02:52:13;;;;;;;6.35;3.20;;;3.50;73.40;;;;;;5120156;28;20066;-79
2023/12/23 02:54:39;;;;;;;4.22;3.15;;;3.50;73.50;;;;;;5117224;28;20032;-79
2023/12/23 02:57:05;;;;;;;4.10;3.30;;;3.50;73.40;;;;;;5115420;28;20050;-79
2023/12/23 02:59:30;;;;;;;4.13;3.22;;;3.40;73.40;;;;;;5127954;27;20039;-78
2023/12/23 03:01:56;;;;;;;4.10;3.42;;;3.40;73.40;;;;;;5111060;27;20030;-79
2023/12/23 03:04:22;;;;;;;6.40;3.53;;;3.40;73.30;;;;;;5115793;27;20032;-80
2023/12/23 03:06:48;;;;;;;4.45;3.65;;;3.40;73.30;;;;;;5119149;27;20036;-79
2023/12/23 03:09:13;;;;;;;5.15;3.60;;;3.40;73.30;;;;;;5121733;27;20028;-79
2023/12/23 03:11:39;;;;;;;6.65;3.60;;;3.40;73.30;;;;;;5117534;27;20031;-79
2023/12/23 03:14:05;;;;;;;4.25;3.25;;;3.30;73.30;;;;;;5115688;28;20077;-81
2023/12/23 03:16:35;;;;;;;4.10;3.00;;;3.30;73.50;;;;;;5118976;27;20032;-79
2023/12/23 03:19:04;;;;;;;4.80;3.28;;;3.30;73.40;;;;;;5117722;27;20028;-79
2023/12/23 03:21:30;;;;;;;5.63;3.20;;;3.40;73.60;;;;;;5120576;27;20031;-79
2023/12/23 03:23:56;;;;;;;6.97;3.50;;;3.40;73.40;;;;;;5118628;27;20023;-79
2023/12/23 03:26:22;;;;;;;4.60;3.30;;;3.30;73.40;;;;;;5101219;28;20363;-79
2023/12/23 03:28:47;;;;;;;3.83;3.30;;;3.30;73.40;;;;;;5114955;27;20056;-79
2023/12/23 03:31:13;;;;;;;4.70;3.70;;;3.30;73.30;;;;;;5134264;27;20496;-79
2023/12/23 03:33:42;;;;;;;4.88;3.55;;;3.30;73.30;;;;;;5117876;28;20027;-79
2023/12/23 03:36:08;;;;;;;4.68;3.58;;;3.30;73.40;;;;;;5113816;27;20027;-79
2023/12/23 03:38:34;;;;;;;6.63;3.72;;;3.30;73.50;;;;;;5133641;27;20026;-80
2023/12/23 03:41:00;;;;;;;6.55;3.78;;;3.30;73.30;;;;;;5124934;27;20047;-79
2023/12/23 03:43:25;;;;;;;5.97;3.95;;;3.30;73.30;;;;;;5117584;28;20020;-79
2023/12/23 03:45:51;;;;;;;4.55;3.38;;;3.20;73.30;;;;;;5113349;27;20033;-79
2023/12/23 03:48:17;;;;;;;7.50;3.67;;;3.20;73.50;;;;;;5119583;27;20104;-79
2023/12/23 03:50:43;;;;;;;5.47;3.67;;;3.20;73.60;;;;;;5119238;27;20038;-80
2023/12/23 03:53:09;;;;;;;5.65;3.53;;;3.20;73.60;;;;;;5118856;27;20497;-78
2023/12/23 03:55:35;;;;;;;4.63;3.63;;;3.20;73.60;;;;;;5116520;27;20030;-80
2023/12/23 03:58:02;;;;;;;4.88;3.28;;;3.30;73.60;;;;;;5100276;28;20126;-78
2023/12/23 04:00:28;;;;;;;6.63;3.60;;;3.30;73.60;;;;;;5134812;27;20039;-79
2023/12/23 04:02:54;;;;;;;4.70;3.20;;;3.30;73.50;;;;;;5120890;27;20035;-78
2023/12/23 04:05:21;;;;;;;4.85;3.53;;;3.40;73.50;;;;;;5117365;27;20031;-79
2023/12/23 04:07:50;;;;;;;4.75;3.75;;;3.40;73.60;;;;;;5115864;27;20035;-80
2023/12/23 04:10:17;;;;;;;4.10;3.30;;;3.40;73.50;;;;;;5122666;27;20103;-79
2023/12/23 04:12:43;;;;;;;5.13;3.63;;;3.40;73.30;;;;;;5117518;27;20087;-80
2023/12/23 04:15:09;;;;;;;3.10;2.80;;;3.40;73.30;;;;;;5132621;27;20015;-78
2023/12/23 04:17:34;;;;;;;5.25;3.30;;;3.40;73.30;;;;;;5116716;27;20027;-78
2023/12/23 04:20:01;;;;;;;5.43;3.38;;;3.40;73.30;;;;;;5098211;27;20077;-79
2023/12/23 04:22:26;;;;;;;4.82;3.80;;;3.40;73.10;;;;;;5110674;28;20046;-79
2023/12/23 04:24:53;;;;;;;6.55;3.60;;;3.30;73.10;;;;;;5125739;27;20449;-79
2023/12/23 04:27:19;;;;;;;5.38;3.30;;;3.30;73.00;;;;;;5116451;27;20076;-78
2023/12/23 04:29:45;;;;;;;5.40;3.58;;;3.30;73.10;;;;;;5125365;27;20091;-79
2023/12/23 04:32:11;;;;;;;5.57;3.58;;;3.30;73.20;;;;;;5136786;27;20094;-80
2023/12/23 04:34:40;;;;;;;6.03;4.10;;;3.20;73.00;;;;;;5134963;27;20027;-78
2023/12/23 04:37:05;;;;;;;5.65;3.35;;;3.20;73.10;;;;;;5117982;27;20383;-79
2023/12/23 04:39:31;;;;;;;4.65;3.40;;;3.20;73.20;;;;;;5100733;28;20043;-79
2023/12/23 04:41:57;;;;;;;4.53;3.42;;;3.20;73.30;;;;;;5110076;27;20036;-79
2023/12/23 04:44:23;;;;;;;4.22;3.30;;;3.20;73.20;;;;;;5116028;27;20055;-80
2023/12/23 04:46:49;;;;;;;4.65;3.63;;;3.10;73.10;;;;;;5116282;27;20032;-78
2023/12/23 04:49:15;;;;;;;5.53;3.30;;;3.20;73.30;;;;;;5077333;28;20480;-79
2023/12/23 04:51:43;;;;;;;6.22;3.80;;;3.20;73.20;;;;;;5136362;27;20106;-79
2023/12/23 04:54:12;;;;;;;5.63;3.70;;;3.10;73.20;;;;;;5117651;27;20054;-80
2023/12/23 04:56:39;;;;;;;5.20;3.80;;;3.20;73.80;;;;;;5122277;27;20519;-79
2023/12/23 04:59:05;;;;;;;4.75;3.58;;;3.20;73.20;;;;;;5133722;27;21978;-78
2023/12/23 05:01:31;;;;;;;4.75;3.50;;;3.20;73.10;;;;;;5135105;27;20035;-80
2023/12/23 05:03:57;;;;;;;5.05;3.17;;;3.20;73.20;;;;;;5103397;27;20088;-78
2023/12/23 05:06:23;;;;;;;5.85;3.47;;;3.20;73.20;;;;;;5128974;27;20374;-80
2023/12/23 05:08:49;;;;;;;4.55;3.40;;;3.20;73.20;;;;;;5131636;27;20187;-78
2023/12/23 05:11:14;;;;;;;5.93;3.38;;;3.20;73.20;;;;;;5131371;27;20026;-80
2023/12/23 05:13:40;;;;;;;4.80;3.15;;;3.20;73.00;;;;;;5121567;27;20027;-80
2023/12/23 05:16:06;;;;;;;3.70;3.30;;;3.20;73.10;;;;;;5115972;27;20373;-77
2023/12/23 05:18:32;;;;;;;4.63;3.35;;;3.20;73.20;;;;;;5107160;27;20023;-79
2023/12/23 05:20:58;;;;;;;3.50;3.05;;;3.20;73.20;;;;;;5116676;27;20034;-80
2023/12/23 05:23:24;;;;;;;4.75;3.63;;;3.20;73.20;;;;;;5124250;27;20032;-80
2023/12/23 05:25:54;;;;;;;3.35;3.00;;;3.20;73.10;;;;;;5125356;27;20396;-78
2023/12/23 05:28:20;;;;;;;4.05;3.05;;;3.20;73.10;;;;;;5136125;27;20163;-79
2023/12/23 05:30:46;;;;;;;3.85;3.00;;;3.20;73.10;;;;;;5125833;27;20485;-79
2023/12/23 05:33:12;;;;;;;3.40;2.92;;;3.20;73.00;;;;;;5122794;27;20110;-82
2023/12/23 05:35:38;;;;;;;11.07;7.15;;;3.20;73.10;;;;;;5100448;27;20027;-78
2023/12/23 05:38:04;;;;;;;7.53;5.32;;;3.20;73.00;;;;;;5113912;27;20618;-79
2023/12/23 05:40:29;;;;;;;6.30;3.92;;;3.30;73.10;;;;;;5117284;27;20556;-79
2023/12/23 05:42:55;;;;;;;4.60;3.60;;;3.30;73.00;;;;;;5117301;27;20423;-80
2023/12/23 05:45:21;;;;;;;5.28;3.20;;;3.20;72.90;;;;;;5115062;27;20034;-80
2023/12/23 05:47:49;;;;;;;4.35;3.08;;;3.20;72.90;;;;;;5109369;28;20114;-80
2023/12/23 05:50:16;;;;;;;3.70;3.03;;;3.20;72.80;;;;;;5112099;27;20066;-78
2023/12/23 05:52:44;;;;;;;4.43;3.30;;;3.20;72.80;;;;;;5127915;27;20027;-80
2023/12/23 05:55:09;;;;;;;3.95;3.00;;;3.20;72.90;;;;;;5118725;27;20035;-81
2023/12/23 05:57:35;;;;;;;5.10;3.33;;;3.20;73.00;;;;;;5127093;27;20088;-79
2023/12/23 06:00:05;;;;;;;8.20;5.63;;;3.30;73.00;;;;;;5117185;27;20054;-80
2023/12/23 06:02:30;;;;;;;8.90;5.90;;;3.30;73.00;;;;;;5098422;27;20066;-80
2023/12/23 06:04:58;;;;;;;6.40;4.45;;;3.30;73.00;;;;;;5134619;27;20142;-81
2023/12/23 06:07:24;;;;;;;5.38;3.78;;;3.30;72.90;;;;;;5132938;27;20034;-78
2023/12/23 06:09:50;;;;;;;5.13;3.53;;;3.30;72.80;;;;;;5130788;27;20423;-79
2023/12/23 06:12:15;;;;;;;4.43;3.15;;;3.30;72.80;;;;;;5115790;27;20107;-79
2023/12/23 06:14:41;;;;;;;3.70;2.88;;;3.30;72.80;;;;;;5096373;28;20024;-79
2023/12/23 06:17:08;;;;;;;3.95;3.13;;;3.30;72.80;;;;;;5121213;27;20061;-79
2023/12/23 06:19:34;;;;;;;4.55;3.22;;;3.40;72.90;;;;;;5132997;27;20047;-79
2023/12/23 06:22:00;;;;;;;5.57;3.75;;;3.40;72.90;;;;;;5116305;28;20020;-78
2023/12/23 06:24:25;;;;;;;5.93;4.03;;;3.40;72.80;;;;;;5115735;28;20054;-80
2023/12/23 06:26:51;;;;;;;4.88;3.60;;;3.40;72.80;;;;;;5119926;27;20465;-80
2023/12/23 06:29:17;;;;;;;4.75;3.63;;;3.50;72.80;;;;;;5113244;28;20031;-82
2023/12/23 06:31:43;;;;;;;4.45;3.38;;;3.50;72.80;;;;;;5113770;28;20027;-81
2023/12/23 06:34:09;;;;;;;4.88;3.50;;;3.50;72.80;;;;;;5095142;28;20088;-77
2023/12/23 06:36:34;;;;;;;4.00;3.42;;;3.60;72.80;;;;;;5115366;27;20027;-77
2023/12/23 06:39:03;;;;;;;4.32;3.22;;;3.60;72.80;;;;;;5128405;27;20094;-83
2023/12/23 06:41:30;;;;;;;4.65;3.35;;;3.70;72.80;;;;;;5130362;28;20087;-81
2023/12/23 06:43:56;;;;;;;3.42;2.88;;;3.70;72.80;;;;;;5101926;28;20051;-77
2023/12/23 06:46:21;;;;;;;3.80;2.95;;;3.70;73.40;;;;;;5120493;27;20038;-74
2023/12/23 06:48:47;;;;;;;4.07;3.10;;;3.80;72.80;;;;;;5105462;28;20118;-77
2023/12/23 06:51:13;;;;;;;3.58;2.88;;;3.80;72.70;;;;;;5103931;28;20123;-80
2023/12/23 06:53:39;;;;;;;3.13;2.72;;;3.90;72.70;;;;;;5101449;28;20710;-73
2023/12/23 06:56:05;;;;;;;6.55;3.63;;;3.90;72.60;;;;;;5133978;28;20019;-73
2023/12/23 06:58:31;;;;;;;5.50;3.13;;;3.90;72.60;;;;;;5103797;28;20075;-74
2023/12/23 07:00:57;;;;;;;6.32;3.92;;;3.90;72.40;;;;;;5113684;28;20495;-75
2023/12/23 07:03:23;;;;;;;9.13;4.05;;;4.00;72.50;;;;;;5124805;27;20489;-74
2023/12/23 07:05:48;;;;;;;4.65;3.70;;;4.00;72.30;;;;;;5134513;27;20106;-75
2023/12/23 07:08:15;;;;;;;5.53;3.97;;;4.00;72.30;;;;;;5133683;27;20039;-76
2023/12/23 07:10:41;;;;;;;4.88;3.42;;;4.00;72.40;;;;;;5116544;28;20474;-76
2023/12/23 07:13:08;;;;;;;5.53;4.15;;;4.10;72.40;;;;;;5113730;28;20035;-78
2023/12/23 07:15:34;;;;;;;4.97;3.50;;;4.10;72.40;;;;;;5111567;28;20020;-76
2023/12/23 07:17:59;;;;;;;5.00;3.47;;;4.10;72.30;;;;;;5114294;28;20085;-75
2023/12/23 07:20:25;;;;;;;3.90;3.20;;;4.10;72.20;;;;;;5094640;28;20039;-75
2023/12/23 07:22:51;;;;;;;4.80;3.53;;;4.10;72.00;;;;;;5095882;28;20022;-76
2023/12/23 07:25:16;;;;;;;4.95;3.17;;;4.20;72.10;;;;;;5096632;28;20416;-76
2023/12/23 07:27:42;;;;;;;4.72;3.50;;;4.20;71.90;;;;;;5128513;27;20442;-75
2023/12/23 07:30:08;;;;;;;6.05;3.78;;;4.20;72.10;;;;;;5113644;28;20389;-77
2023/12/23 07:32:35;;;;;;;4.35;3.50;;;4.20;72.20;;;;;;5114785;28;20046;-77
2023/12/23 07:35:00;;;;;;;5.18;3.20;;;4.20;72.00;;;;;;5115349;28;20025;-78
2023/12/23 07:37:26;;;;;;;4.43;3.28;;;4.30;72.00;;;;;;5112217;28;20024;-80
2023/12/23 07:39:52;;;;;;;5.35;3.33;;;4.20;71.70;;;;;;5113681;28;20042;-74
2023/12/23 07:42:18;;;;;;;4.63;3.20;;;4.30;71.90;;;;;;5112254;28;20024;-73
2023/12/23 07:44:44;;;;;;;4.53;3.60;;;4.20;72.00;;;;;;5118379;28;20035;-73
2023/12/23 07:47:10;;;;;;;4.53;3.55;;;4.30;72.00;;;;;;5124188;27;20032;-78
2023/12/23 07:49:36;;;;;;;3.38;2.80;;;4.30;71.90;;;;;;5130084;27;20035;-77
2023/12/23 07:52:02;;;;;;;4.32;3.00;;;4.30;71.80;;;;;;5134340;27;20031;-79
2023/12/23 07:54:28;;;;;;;4.10;3.22;;;4.30;71.70;;;;;;5121604;27;20430;-79
2023/12/23 07:56:53;;;;;;;5.78;3.25;;;4.40;71.80;;;;;;5133703;27;20035;-81
2023/12/23 07:59:19;;;;;;;4.22;3.30;;;4.40;71.80;;;;;;5117402;27;20035;-79
2023/12/23 08:01:46;;;;;;;4.00;2.70;;;4.40;71.70;;;;;;5135727;27;20549;-76
2023/12/23 08:04:13;;;;;;;4.43;2.88;;;4.40;71.70;;;;;;5127979;27;20457;-76
2023/12/23 08:06:39;;;;;;;4.57;3.00;;;4.40;71.70;;;;;;5135550;27;20436;-73
2023/12/23 08:09:06;;;;;;;3.75;2.97;;;4.40;72.20;;;;;;5124034;27;20446;-77
2023/12/23 08:11:32;;;;;;;2.90;2.60;;;4.40;72.70;;;;;;5108412;28;20027;-75
2023/12/23 08:13:58;;;;;;;3.55;2.75;;;4.50;72.90;;;;;;5118017;28;20023;-73
2023/12/23 08:16:23;;;;;;;3.03;2.70;;;4.60;72.90;;;;;;5099671;28;20355;-79
2023/12/23 08:18:49;;;;;;;3.00;2.55;;;4.70;72.90;;;;;;5118267;27;20055;-79
2023/12/23 08:21:15;;;;;;;4.25;2.72;;;4.70;72.80;;;;;;5116827;28;20458;-81
2023/12/23 08:23:41;;;;;;;5.03;2.80;;;4.80;72.70;;;;;;5109080;27;20457;-77
2023/12/23 08:26:08;;;;;;;3.40;2.85;;;4.90;72.60;;;;;;5127505;27;20023;-74
2023/12/23 08:28:34;;;;;;;3.03;2.70;;;5.00;72.50;;;;;;5114633;27;20085;-76
2023/12/23 08:31:02;;;;;;;3.38;2.83;;;5.00;72.30;;;;;;5116306;28;20452;-77
2023/12/23 08:33:28;;;;;;;3.92;2.72;;;5.10;72.20;;;;;;5127205;27;20019;-77
2023/12/23 08:35:56;;;;;;;3.53;2.42;;;5.20;72.00;;;;;;5136337;27;20160;-77
2023/12/23 08:38:22;;;;;;;2.80;2.58;;;5.30;72.50;;;;;;5124621;27;20039;-77
2023/12/23 08:40:48;;;;;;;3.00;2.70;;;5.30;71.80;;;;;;5106520;27;20043;-77
2023/12/23 08:43:15;;;;;;;2.92;2.72;;;5.30;71.60;;;;;;5134879;27;20037;-78
2023/12/23 08:45:41;;;;;;;3.58;2.60;;;5.40;71.60;;;;;;5125294;27;20085;-75
2023/12/23 08:48:07;;;;;;;2.72;2.53;;;5.40;71.60;;;;;;5099018;28;20443;-76
2023/12/23 08:50:33;;;;;;;3.10;2.30;;;5.50;71.50;;;;;;5105557;27;20453;-75
2023/12/23 08:52:58;;;;;;;2.45;2.25;;;5.50;71.40;;;;;;5121547;27;20389;-77
2023/12/23 08:55:24;;;;;;;3.35;2.60;;;5.60;71.40;;;;;;5113375;27;20084;-79
2023/12/23 08:57:50;;;;;;;3.03;2.50;;;5.60;71.20;;;;;;5127216;27;20039;-74
2023/12/23 09:00:16;;;;;;;3.25;2.70;;;5.70;71.20;;;;;;5095368;28;20083;-75
2023/12/23 09:02:42;;;;;;;2.60;2.33;;;5.80;71.20;;;;;;5117784;27;20119;-80
2023/12/23 09:05:08;;;;;;;2.40;2.20;;;5.80;71.00;;;;;;5099598;28;20508;-78
2023/12/23 09:07:34;;;;;;;2.50;2.30;;;5.90;70.90;;;;;;5107751;27;20126;-80
2023/12/23 09:10:00;;;;;;;2.90;2.50;;;6.00;70.80;;;;;;5134505;27;20069;-80
2023/12/23 09:12:25;;;;;;;2.65;2.42;;;6.00;70.70;;;;;;5121337;27;20049;-83
2023/12/23 09:14:51;;;;;;;3.40;3.03;;;6.00;70.50;;;;;;5130031;27;20492;-79
2023/12/23 09:17:17;;;;;;;2.72;2.33;;;6.10;70.50;;;;;;5124245;27;20044;-80
2023/12/23 09:19:43;;;;;;;2.42;2.15;;;6.10;70.40;;;;;;5101751;28;20436;-81
2023/12/23 09:22:08;;;;;;;2.90;2.20;;;6.20;70.30;;;;;;5114198;28;20028;-80
2023/12/23 09:24:35;;;;;;;2.88;2.22;;;6.20;70.20;;;;;;5114480;28;20024;-80
2023/12/23 09:27:00;;;;;;;2.60;2.40;;;6.20;70.20;;;;;;5096946;28;20034;-85
2023/12/23 09:29:26;;;;;;;3.17;2.50;;;6.20;70.20;;;;;;5114772;28;20394;-81
2023/12/23 09:31:52;;;;;;;2.33;2.10;;;6.20;70.10;;;;;;5114924;28;20145;-80
2023/12/23 09:34:20;;;;;;;4.00;2.63;;;6.30;70.10;;;;;;5114616;28;20088;-80
2023/12/23 09:36:47;;;;;;;3.05;2.60;;;6.40;70.10;;;;;;5114727;28;20050;-80
2023/12/23 09:39:13;;;;;;;2.92;2.33;;;6.40;70.00;;;;;;5114979;28;20465;-81
2023/12/23 09:41:40;;;;;;;3.25;2.50;;;6.50;69.90;;;;;;5114742;28;20031;-80
2023/12/23 09:44:07;;;;;;;4.40;2.50;;;6.50;69.80;;;;;;5115038;28;20058;-80
2023/12/23 09:46:32;;;;;;;3.05;2.60;;;6.60;69.70;;;;;;5109521;28;20023;-80
2023/12/23 09:48:58;;;;;;;3.70;2.60;;;6.60;69.50;;;;;;5113541;28;20110;-79
2023/12/23 09:51:29;;;;;;;2.63;2.40;;;6.60;69.50;;;;;;5096336;28;20531;-80
2023/12/23 09:54:00;;;;;;;2.50;2.30;;;6.60;69.40;;;;;;5114896;28;20058;-81
2023/12/23 09:56:29;;;;;;;2.55;2.30;;;6.70;69.40;;;;;;5113731;28;20035;-81
2023/12/23 09:58:56;;;;;;;2.95;2.33;;;6.70;69.40;;;;;;5115108;28;20048;-78
2023/12/23 10:01:22;;;;;;;3.40;2.50;;;6.70;69.20;;;;;;5112799;28;20075;-80
2023/12/23 10:03:49;;;;;;;2.78;2.40;;;6.70;69.10;;;;;;5124171;27;20027;-80
2023/12/23 10:06:16;;;;;;;2.58;2.22;;;6.80;69.10;;;;;;5116002;27;20092;-80
2023/12/23 10:08:44;;;;;;;2.78;2.30;;;6.80;69.00;;;;;;5117321;27;20488;-79
2023/12/23 10:11:11;;;;;;;3.72;2.60;;;6.80;68.90;;;;;;5116474;27;20484;-79
2023/12/23 10:13:37;;;;;;;3.20;2.50;;;6.80;68.90;;;;;;5116651;27;20027;-81
2023/12/23 10:16:03;;;;;;;2.72;2.40;;;6.80;68.80;;;;;;5134973;27;20019;-81
2023/12/23 10:18:30;;;;;;;2.55;2.35;;;6.80;68.80;;;;;;5134921;27;20030;-79
2023/12/23 10:20:57;;;;;;;2.80;2.28;;;6.80;68.80;;;;;;5116138;27;20042;-80
2023/12/23 10:23:23;;;;;;;5.32;2.58;;;6.80;68.70;;;;;;5112819;28;20110;-79
2023/12/23 10:25:51;;;;;;;3.80;2.75;;;6.80;68.60;;;;;;5113755;28;20114;-79
2023/12/23 10:28:21;;;;;;;3.35;2.45;;;6.70;68.60;;;;;;5112910;28;20027;-81
2023/12/23 10:30:50;;;;;;;3.25;2.50;;;6.70;68.60;;;;;;5114312;28;20023;-79
2023/12/23 10:33:17;;;;;;;2.88;2.20;;;6.70;68.70;;;;;;5112722;28;20066;-80
2023/12/23 10:35:48;;;;;;;3.10;2.22;;;6.70;68.60;;;;;;5114865;28;20016;-80
2023/12/23 10:38:20;;;;;;;3.08;2.40;;;6.70;68.60;;;;;;5113207;28;20031;-80
2023/12/23 10:41:05;;;;;;;2.80;2.55;;;6.70;68.60;;;;;;5114478;28;20036;-80
2023/12/23 10:43:35;;;;;;;2.58;2.22;;;6.70;68.50;;;;;;5114125;28;20035;-78
2023/12/23 10:46:03;;;;;;;2.50;2.22;;;6.70;68.30;;;;;;5114705;28;20130;-80
2023/12/23 10:48:31;;;;;;;4.07;3.17;;;6.70;68.30;;;;;;5113837;28;20059;-80
2023/12/23 10:50:59;;;;;;;3.10;2.42;;;6.70;68.30;;;;;;5116499;28;20031;-80
2023/12/23 10:53:26;;;;;;;4.47;2.55;;;6.70;68.20;;;;;;5130419;27;20032;-81
2023/12/23 10:55:54;;;;;;;2.35;2.15;;;6.70;68.20;;;;;;5116122;28;20023;-79
2023/12/23 10:58:20;;;;;;;2.65;2.10;;;6.60;68.20;;;;;;5132569;28;20051;-79
2023/12/23 11:00:47;;;;;;;2.88;2.50;;;6.70;68.20;;;;;;5115598;28;20036;-80
2023/12/23 11:03:13;;;;;;;3.30;2.58;;;6.60;68.20;;;;;;5112226;28;20019;-80
2023/12/23 11:05:41;;;;;;;3.25;2.42;;;6.60;68.20;;;;;;5118270;28;20031;-78
2023/12/23 11:08:14;;;;;;;2.40;2.20;;;6.60;68.20;;;;;;5112464;28;20032;-81
2023/12/23 11:10:41;;;;;;;3.55;2.38;;;6.70;68.10;;;;;;5112763;28;20400;-79
2023/12/23 11:13:07;;;;;;;3.75;2.40;;;6.60;68.00;;;;;;5093378;28;20080;-79
2023/12/23 11:15:37;;;;;;;2.63;2.30;;;6.60;67.90;;;;;;5093281;28;20024;-80
2023/12/23 11:18:03;;;;;;;2.83;2.28;;;6.60;68.00;;;;;;5093704;28;20020;-79
2023/12/23 11:20:31;;;;;;;2.40;2.20;;;6.60;67.90;;;;;;5094277;28;20089;-79
2023/12/23 11:23:20;;;;;;;4.03;2.40;;;6.60;67.90;;;;;;5098562;27;20030;-80
2023/12/23 11:25:45;;;;;;;2.97;2.35;;;6.70;67.90;;;;;;5137797;27;20508;-79
2023/12/23 11:28:14;;;;;;;3.67;2.70;;;6.60;67.80;;;;;;5137816;27;20144;-80
2023/12/23 11:30:52;;;;;;;5.93;2.60;;;6.70;67.80;;;;;;5138182;27;20035;-82
2023/12/23 11:33:18;;;;;;;3.55;2.53;;;6.70;67.70;;;;;;5117784;27;20023;-80
2023/12/23 11:35:51;;;;;;;3.13;2.50;;;6.70;67.70;;;;;;5115850;28;20028;-80
2023/12/23 11:38:17;;;;;;;2.50;2.20;;;6.70;67.70;;;;;;5117301;28;20028;-80
2023/12/23 11:40:44;;;;;;;2.92;2.17;;;6.80;67.70;;;;;;5115826;28;20476;-80
2023/12/23 11:43:10;;;;;;;2.30;2.10;;;6.80;67.70;;;;;;5099163;28;20044;-79
2023/12/23 11:45:39;;;;;;;2.63;2.28;;;6.80;67.60;;;;;;5117299;28;20125;-79
2023/12/23 11:48:10;;;;;;;2.95;2.45;;;6.80;67.50;;;;;;5124328;27;20023;-80
2023/12/23 11:50:36;;;;;;;3.75;2.60;;;6.80;67.50;;;;;;5137859;27;20023;-79
2023/12/23 11:53:02;;;;;;;4.05;2.88;;;6.80;67.40;;;;;;5137281;27;20035;-79
2023/12/23 11:55:28;;;;;;;2.83;2.28;;;6.80;67.40;;;;;;5137912;27;20111;-79
2023/12/23 11:57:54;;;;;;;3.63;2.55;;;6.80;67.30;;;;;;5115014;28;20035;-79
2023/12/23 12:00:20;;;;;;;2.35;2.15;;;6.80;67.30;;;;;;5116898;28;20089;-82
2023/12/23 12:02:46;;;;;;;4.05;2.60;;;6.80;67.30;;;;;;5115839;28;20454;-82
2023/12/23 12:05:12;;;;;;;3.88;2.60;;;6.80;67.20;;;;;;5115243;27;20020;-80
2023/12/23 12:07:38;;;;;;;3.10;2.50;;;6.70;67.10;;;;;;5116725;28;20027;-81
2023/12/23 12:10:04;;;;;;;3.13;2.53;;;6.70;67.10;;;;;;5116878;27;20381;-81
2023/12/23 12:12:30;;;;;;;2.95;2.63;;;6.70;67.10;;;;;;5116848;28;20028;-81
2023/12/23 12:14:56;;;;;;;3.08;2.20;;;6.70;67.10;;;;;;5116839;28;20027;-81
2023/12/23 12:17:24;;;;;;;3.00;2.70;;;6.70;67.10;;;;;;5120586;27;20035;-80
2023/12/23 12:19:50;;;;;;;3.63;2.40;;;6.70;67.20;;;;;;5119303;27;20035;-80
2023/12/23 12:22:16;;;;;;;3.00;2.50;;;6.60;67.10;;;;;;5119019;27;20100;-81
2023/12/23 12:24:43;;;;;;;4.20;2.78;;;6.60;67.10;;;;;;5137838;27;20058;-80
2023/12/23 12:27:09;;;;;;;3.55;2.60;;;6.60;67.10;;;;;;5101718;27;20034;-79
2023/12/23 12:29:35;;;;;;;3.42;2.55;;;6.60;67.10;;;;;;5118668;27;20042;-80
2023/12/23 12:32:02;;;;;;;2.83;2.47;;;6.60;67.00;;;;;;5117172;28;20038;-81
2023/12/23 12:34:29;;;;;;;4.03;3.00;;;6.60;67.00;;;;;;5130180;27;20069;-80
2023/12/23 12:36:56;;;;;;;2.25;2.05;;;6.60;67.10;;;;;;5117826;28;20080;-81
2023/12/23 12:39:22;;;;;;;4.82;2.53;;;6.60;67.00;;;;;;5115148;28;20124;-81
2023/12/23 12:41:50;;;;;;;3.63;2.50;;;6.60;67.00;;;;;;5115440;28;20061;-80
2023/12/23 12:44:19;;;;;;;2.85;2.22;;;6.50;67.00;;;;;;5116644;27;20028;-81
2023/12/23 12:46:52;;;;;;;3.72;2.90;;;6.60;67.00;;;;;;5116261;28;20055;-80
2023/12/23 12:49:22;;;;;;;3.33;2.60;;;6.60;67.00;;;;;;5114770;28;20088;-80
2023/12/23 12:51:49;;;;;;;2.63;2.33;;;6.50;66.90;;;;;;5117378;27;20020;-81
2023/12/23 12:54:15;;;;;;;3.45;2.50;;;6.50;67.00;;;;;;5133281;27;20089;-81